sensor_id;sensor_type;location;lat;lon;timestamp;P1;durP1;ratioP1;P2;durP2;ratioP2
4214;SDS011;2121;48.062;7.850;2023-04-25T00:01:24;7.13;;;2.87;;
4214;SDS011;2121;48.062;7.850;2023-04-25T00:03:50;6.27;;;3.47;;
4214;SDS011;2121;48.062;7.850;2023-04-25T00:06:15;4.37;;;3.17;;
4214;SDS011;2121;48.062;7.850;2023-04-25T00:08:42;4.60;;;2.90;;
4214;SDS011;2121;48.062;7.850;2023-04-25T00:11:08;5.20;;;3.20;;
4214;SDS011;2121;48.062;7.850;2023-04-25T00:13:34;10.63;;;3.83;;
4214;SDS011;2121;48.062;7.850;2023-04-25T00:16:00;3.90;;;3.17;;
4214;SDS011;2121;48.062;7.850;2023-04-25T00:18:27;4.60;;;3.17;;
4214;SDS011;2121;48.062;7.850;2023-04-25T00:20:54;3.40;;;3.07;;
4214;SDS011;2121;48.062;7.850;2023-04-25T00:23:20;7.70;;;3.03;;
4214;SDS011;2121;48.062;7.850;2023-04-25T00:25:47;5.03;;;3.10;;
4214;SDS011;2121;48.062;7.850;2023-04-25T00:28:14;5.23;;;3.50;;
4214;SDS011;2121;48.062;7.850;2023-04-25T00:30:40;3.33;;;2.93;;
4214;SDS011;2121;48.062;7.850;2023-04-25T00:33:07;4.40;;;2.90;;
4214;SDS011;2121;48.062;7.850;2023-04-25T00:35:34;3.40;;;2.73;;
4214;SDS011;2121;48.062;7.850;2023-04-25T00:38:00;7.20;;;3.10;;
4214;SDS011;2121;48.062;7.850;2023-04-25T00:40:26;7.70;;;3.27;;
4214;SDS011;2121;48.062;7.850;2023-04-25T00:42:52;6.50;;;3.80;;
4214;SDS011;2121;48.062;7.850;2023-04-25T00:45:18;5.53;;;3.07;;
4214;SDS011;2121;48.062;7.850;2023-04-25T00:47:45;8.23;;;3.57;;
4214;SDS011;2121;48.062;7.850;2023-04-25T00:50:12;3.37;;;3.07;;
4214;SDS011;2121;48.062;7.850;2023-04-25T00:52:38;3.10;;;2.80;;
4214;SDS011;2121;48.062;7.850;2023-04-25T00:55:07;3.73;;;3.20;;
4214;SDS011;2121;48.062;7.850;2023-04-25T00:57:33;5.40;;;3.50;;
4214;SDS011;2121;48.062;7.850;2023-04-25T00:59:59;3.63;;;3.17;;
4214;SDS011;2121;48.062;7.850;2023-04-25T01:02:25;4.43;;;3.07;;
4214;SDS011;2121;48.062;7.850;2023-04-25T01:04:52;6.13;;;2.87;;
4214;SDS011;2121;48.062;7.850;2023-04-25T01:07:18;6.87;;;3.80;;
4214;SDS011;2121;48.062;7.850;2023-04-25T01:09:44;5.20;;;3.77;;
4214;SDS011;2121;48.062;7.850;2023-04-25T01:12:11;10.30;;;3.10;;
4214;SDS011;2121;48.062;7.850;2023-04-25T01:14:37;9.57;;;3.70;;
4214;SDS011;2121;48.062;7.850;2023-04-25T01:17:04;6.00;;;3.60;;
4214;SDS011;2121;48.062;7.850;2023-04-25T01:19:32;7.83;;;4.27;;
4214;SDS011;2121;48.062;7.850;2023-04-25T01:21:58;4.93;;;3.93;;
4214;SDS011;2121;48.062;7.850;2023-04-25T01:24:24;9.27;;;4.00;;
4214;SDS011;2121;48.062;7.850;2023-04-25T01:26:50;3.83;;;3.47;;
4214;SDS011;2121;48.062;7.850;2023-04-25T01:29:19;5.50;;;3.60;;
4214;SDS011;2121;48.062;7.850;2023-04-25T01:31:45;5.77;;;3.57;;
4214;SDS011;2121;48.062;7.850;2023-04-25T01:34:12;3.47;;;3.17;;
4214;SDS011;2121;48.062;7.850;2023-04-25T01:36:38;4.43;;;3.23;;
4214;SDS011;2121;48.062;7.850;2023-04-25T01:39:05;4.67;;;3.50;;
4214;SDS011;2121;48.062;7.850;2023-04-25T01:41:31;3.50;;;3.30;;
4214;SDS011;2121;48.062;7.850;2023-04-25T01:43:59;5.57;;;3.47;;
4214;SDS011;2121;48.062;7.850;2023-04-25T01:46:25;2.67;;;2.47;;
4214;SDS011;2121;48.062;7.850;2023-04-25T01:48:52;4.67;;;4.13;;
4214;SDS011;2121;48.062;7.850;2023-04-25T01:51:18;6.53;;;3.60;;
4214;SDS011;2121;48.062;7.850;2023-04-25T01:53:44;5.77;;;3.90;;
4214;SDS011;2121;48.062;7.850;2023-04-25T01:56:10;4.63;;;4.13;;
4214;SDS011;2121;48.062;7.850;2023-04-25T01:58:36;4.10;;;3.83;;
4214;SDS011;2121;48.062;7.850;2023-04-25T02:01:02;5.97;;;4.60;;
4214;SDS011;2121;48.062;7.850;2023-04-25T02:03:29;9.27;;;4.13;;
4214;SDS011;2121;48.062;7.850;2023-04-25T02:05:56;8.47;;;3.40;;
4214;SDS011;2121;48.062;7.850;2023-04-25T02:08:22;9.40;;;4.13;;
4214;SDS011;2121;48.062;7.850;2023-04-25T02:10:47;9.83;;;4.10;;
4214;SDS011;2121;48.062;7.850;2023-04-25T02:13:13;4.73;;;3.67;;
4214;SDS011;2121;48.062;7.850;2023-04-25T02:15:39;8.30;;;3.80;;
4214;SDS011;2121;48.062;7.850;2023-04-25T02:18:06;3.40;;;2.70;;
4214;SDS011;2121;48.062;7.850;2023-04-25T02:20:31;5.47;;;3.50;;
4214;SDS011;2121;48.062;7.850;2023-04-25T02:22:57;6.00;;;3.60;;
4214;SDS011;2121;48.062;7.850;2023-04-25T02:25:23;5.87;;;3.27;;
4214;SDS011;2121;48.062;7.850;2023-04-25T02:27:49;7.93;;;4.33;;
4214;SDS011;2121;48.062;7.850;2023-04-25T02:30:16;7.67;;;3.87;;
4214;SDS011;2121;48.062;7.850;2023-04-25T02:32:42;4.87;;;3.60;;
4214;SDS011;2121;48.062;7.850;2023-04-25T02:35:08;6.50;;;3.73;;
4214;SDS011;2121;48.062;7.850;2023-04-25T02:37:35;5.80;;;3.93;;
4214;SDS011;2121;48.062;7.850;2023-04-25T02:40:04;3.73;;;3.43;;
4214;SDS011;2121;48.062;7.850;2023-04-25T02:42:31;5.87;;;3.80;;
4214;SDS011;2121;48.062;7.850;2023-04-25T02:44:57;6.07;;;3.93;;
4214;SDS011;2121;48.062;7.850;2023-04-25T02:47:23;6.60;;;3.80;;
4214;SDS011;2121;48.062;7.850;2023-04-25T02:49:49;6.17;;;4.10;;
4214;SDS011;2121;48.062;7.850;2023-04-25T02:52:15;5.47;;;3.30;;
4214;SDS011;2121;48.062;7.850;2023-04-25T02:54:40;7.43;;;3.93;;
4214;SDS011;2121;48.062;7.850;2023-04-25T02:57:07;7.07;;;3.70;;
4214;SDS011;2121;48.062;7.850;2023-04-25T02:59:33;4.77;;;3.70;;
4214;SDS011;2121;48.062;7.850;2023-04-25T03:01:59;7.43;;;4.40;;
4214;SDS011;2121;48.062;7.850;2023-04-25T03:04:26;3.77;;;3.47;;
4214;SDS011;2121;48.062;7.850;2023-04-25T03:06:52;4.33;;;3.30;;
4214;SDS011;2121;48.062;7.850;2023-04-25T03:09:18;5.53;;;3.07;;
4214;SDS011;2121;48.062;7.850;2023-04-25T03:11:44;5.60;;;3.60;;
4214;SDS011;2121;48.062;7.850;2023-04-25T03:14:11;7.03;;;4.03;;
4214;SDS011;2121;48.062;7.850;2023-04-25T03:16:38;4.67;;;3.20;;
4214;SDS011;2121;48.062;7.850;2023-04-25T03:19:04;4.53;;;3.73;;
4214;SDS011;2121;48.062;7.850;2023-04-25T03:21:31;5.20;;;3.40;;
4214;SDS011;2121;48.062;7.850;2023-04-25T03:23:59;4.67;;;3.83;;
4214;SDS011;2121;48.062;7.850;2023-04-25T03:26:28;4.03;;;3.30;;
4214;SDS011;2121;48.062;7.850;2023-04-25T03:28:54;3.87;;;3.57;;
4214;SDS011;2121;48.062;7.850;2023-04-25T03:31:20;8.20;;;4.00;;
4214;SDS011;2121;48.062;7.850;2023-04-25T03:33:45;6.47;;;4.23;;
4214;SDS011;2121;48.062;7.850;2023-04-25T03:36:11;4.77;;;4.27;;
4214;SDS011;2121;48.062;7.850;2023-04-25T03:38:37;4.07;;;3.67;;
4214;SDS011;2121;48.062;7.850;2023-04-25T03:41:03;3.97;;;3.60;;
4214;SDS011;2121;48.062;7.850;2023-04-25T03:43:28;7.23;;;4.20;;
4214;SDS011;2121;48.062;7.850;2023-04-25T03:45:54;4.87;;;3.97;;
4214;SDS011;2121;48.062;7.850;2023-04-25T03:48:20;4.70;;;3.40;;
4214;SDS011;2121;48.062;7.850;2023-04-25T03:50:47;3.83;;;3.50;;
4214;SDS011;2121;48.062;7.850;2023-04-25T03:53:13;3.70;;;3.30;;
4214;SDS011;2121;48.062;7.850;2023-04-25T03:55:38;5.13;;;3.50;;
4214;SDS011;2121;48.062;7.850;2023-04-25T03:58:05;3.73;;;3.43;;
4214;SDS011;2121;48.062;7.850;2023-04-25T04:00:30;4.40;;;3.70;;
4214;SDS011;2121;48.062;7.850;2023-04-25T04:02:56;6.17;;;4.63;;
4214;SDS011;2121;48.062;7.850;2023-04-25T04:05:22;4.57;;;3.80;;
4214;SDS011;2121;48.062;7.850;2023-04-25T04:07:48;5.27;;;3.93;;
4214;SDS011;2121;48.062;7.850;2023-04-25T04:10:14;4.70;;;3.50;;
4214;SDS011;2121;48.062;7.850;2023-04-25T04:12:39;9.17;;;4.60;;
4214;SDS011;2121;48.062;7.850;2023-04-25T04:15:05;5.50;;;3.77;;
4214;SDS011;2121;48.062;7.850;2023-04-25T04:17:32;4.07;;;3.67;;
4214;SDS011;2121;48.062;7.850;2023-04-25T04:19:59;4.63;;;3.20;;
4214;SDS011;2121;48.062;7.850;2023-04-25T04:22:25;9.33;;;4.07;;
4214;SDS011;2121;48.062;7.850;2023-04-25T04:24:50;7.90;;;3.77;;
4214;SDS011;2121;48.062;7.850;2023-04-25T04:27:17;7.03;;;4.47;;
4214;SDS011;2121;48.062;7.850;2023-04-25T04:29:44;6.30;;;3.33;;
4214;SDS011;2121;48.062;7.850;2023-04-25T04:32:12;5.40;;;4.37;;
4214;SDS011;2121;48.062;7.850;2023-04-25T04:34:39;9.50;;;6.27;;
4214;SDS011;2121;48.062;7.850;2023-04-25T04:37:06;6.00;;;3.70;;
4214;SDS011;2121;48.062;7.850;2023-04-25T04:39:32;6.13;;;4.70;;
4214;SDS011;2121;48.062;7.850;2023-04-25T04:41:59;7.70;;;4.60;;
4214;SDS011;2121;48.062;7.850;2023-04-25T04:44:26;8.00;;;5.50;;
4214;SDS011;2121;48.062;7.850;2023-04-25T04:46:53;11.00;;;7.50;;
4214;SDS011;2121;48.062;7.850;2023-04-25T04:49:19;9.20;;;5.10;;
4214;SDS011;2121;48.062;7.850;2023-04-25T04:51:45;4.53;;;3.63;;
4214;SDS011;2121;48.062;7.850;2023-04-25T04:54:12;7.80;;;4.83;;
4214;SDS011;2121;48.062;7.850;2023-04-25T04:56:38;5.43;;;4.90;;
4214;SDS011;2121;48.062;7.850;2023-04-25T04:59:03;7.20;;;4.77;;
4214;SDS011;2121;48.062;7.850;2023-04-25T05:01:29;5.00;;;4.50;;
4214;SDS011;2121;48.062;7.850;2023-04-25T05:03:56;5.37;;;4.60;;
4214;SDS011;2121;48.062;7.850;2023-04-25T05:06:25;9.87;;;4.90;;
4214;SDS011;2121;48.062;7.850;2023-04-25T05:08:54;4.97;;;4.50;;
4214;SDS011;2121;48.062;7.850;2023-04-25T05:11:23;4.97;;;3.80;;
4214;SDS011;2121;48.062;7.850;2023-04-25T05:13:51;4.93;;;3.83;;
4214;SDS011;2121;48.062;7.850;2023-04-25T05:16:17;8.47;;;4.50;;
4214;SDS011;2121;48.062;7.850;2023-04-25T05:18:44;5.50;;;3.90;;
4214;SDS011;2121;48.062;7.850;2023-04-25T05:21:09;7.20;;;4.33;;
4214;SDS011;2121;48.062;7.850;2023-04-25T05:23:35;5.63;;;3.80;;
4214;SDS011;2121;48.062;7.850;2023-04-25T05:26:01;6.60;;;4.17;;
4214;SDS011;2121;48.062;7.850;2023-04-25T05:28:27;7.07;;;4.30;;
4214;SDS011;2121;48.062;7.850;2023-04-25T05:30:53;4.20;;;3.57;;
4214;SDS011;2121;48.062;7.850;2023-04-25T05:33:18;4.00;;;3.60;;
4214;SDS011;2121;48.062;7.850;2023-04-25T05:35:44;7.93;;;4.37;;
4214;SDS011;2121;48.062;7.850;2023-04-25T05:38:11;13.73;;;4.30;;
4214;SDS011;2121;48.062;7.850;2023-04-25T05:40:37;6.97;;;4.57;;
4214;SDS011;2121;48.062;7.850;2023-04-25T05:43:03;9.30;;;4.90;;
4214;SDS011;2121;48.062;7.850;2023-04-25T05:45:29;6.50;;;4.77;;
4214;SDS011;2121;48.062;7.850;2023-04-25T05:47:54;7.30;;;4.13;;
4214;SDS011;2121;48.062;7.850;2023-04-25T05:50:20;5.17;;;3.73;;
4214;SDS011;2121;48.062;7.850;2023-04-25T05:52:46;5.67;;;3.30;;
4214;SDS011;2121;48.062;7.850;2023-04-25T05:55:12;5.07;;;3.20;;
4214;SDS011;2121;48.062;7.850;2023-04-25T05:57:38;7.07;;;3.43;;
4214;SDS011;2121;48.062;7.850;2023-04-25T06:00:06;3.00;;;2.70;;
4214;SDS011;2121;48.062;7.850;2023-04-25T06:02:34;8.40;;;2.90;;
4214;SDS011;2121;48.062;7.850;2023-04-25T06:05:00;2.40;;;2.20;;
4214;SDS011;2121;48.062;7.850;2023-04-25T06:07:28;3.77;;;2.60;;
4214;SDS011;2121;48.062;7.850;2023-04-25T06:09:55;3.73;;;2.13;;
4214;SDS011;2121;48.062;7.850;2023-04-25T06:12:21;4.30;;;2.20;;
4214;SDS011;2121;48.062;7.850;2023-04-25T06:14:46;3.43;;;1.70;;
4214;SDS011;2121;48.062;7.850;2023-04-25T06:17:12;1.93;;;1.70;;
4214;SDS011;2121;48.062;7.850;2023-04-25T06:19:38;2.07;;;1.80;;
4214;SDS011;2121;48.062;7.850;2023-04-25T06:22:04;1.63;;;1.53;;
4214;SDS011;2121;48.062;7.850;2023-04-25T06:24:30;3.40;;;1.70;;
4214;SDS011;2121;48.062;7.850;2023-04-25T06:26:56;1.43;;;1.40;;
4214;SDS011;2121;48.062;7.850;2023-04-25T06:29:21;1.80;;;1.70;;
4214;SDS011;2121;48.062;7.850;2023-04-25T06:31:47;1.80;;;1.70;;
4214;SDS011;2121;48.062;7.850;2023-04-25T06:34:13;5.20;;;1.77;;
4214;SDS011;2121;48.062;7.850;2023-04-25T06:36:38;3.30;;;2.30;;
4214;SDS011;2121;48.062;7.850;2023-04-25T06:39:06;2.50;;;2.30;;
4214;SDS011;2121;48.062;7.850;2023-04-25T06:41:33;3.83;;;1.97;;
4214;SDS011;2121;48.062;7.850;2023-04-25T06:44:00;9.30;;;4.20;;
4214;SDS011;2121;48.062;7.850;2023-04-25T06:46:26;6.43;;;2.40;;
4214;SDS011;2121;48.062;7.850;2023-04-25T06:48:51;2.00;;;1.90;;
4214;SDS011;2121;48.062;7.850;2023-04-25T06:51:17;1.77;;;1.67;;
4214;SDS011;2121;48.062;7.850;2023-04-25T06:53:43;4.30;;;2.00;;
4214;SDS011;2121;48.062;7.850;2023-04-25T06:56:08;4.33;;;2.37;;
4214;SDS011;2121;48.062;7.850;2023-04-25T06:58:35;2.93;;;2.13;;
4214;SDS011;2121;48.062;7.850;2023-04-25T07:01:00;5.47;;;2.30;;
4214;SDS011;2121;48.062;7.850;2023-04-25T07:03:26;6.07;;;2.80;;
4214;SDS011;2121;48.062;7.850;2023-04-25T07:05:52;6.80;;;3.23;;
4214;SDS011;2121;48.062;7.850;2023-04-25T07:08:17;2.73;;;2.53;;
4214;SDS011;2121;48.062;7.850;2023-04-25T07:10:43;2.57;;;2.37;;
4214;SDS011;2121;48.062;7.850;2023-04-25T07:13:11;3.13;;;2.80;;
4214;SDS011;2121;48.062;7.850;2023-04-25T07:15:36;2.63;;;2.43;;
4214;SDS011;2121;48.062;7.850;2023-04-25T07:18:02;4.03;;;2.47;;
4214;SDS011;2121;48.062;7.850;2023-04-25T07:20:28;4.67;;;2.70;;
4214;SDS011;2121;48.062;7.850;2023-04-25T07:22:55;2.13;;;1.93;;
4214;SDS011;2121;48.062;7.850;2023-04-25T07:25:22;3.70;;;3.40;;
4214;SDS011;2121;48.062;7.850;2023-04-25T07:27:47;2.87;;;2.67;;
4214;SDS011;2121;48.062;7.850;2023-04-25T07:30:13;3.07;;;2.77;;
4214;SDS011;2121;48.062;7.850;2023-04-25T07:32:40;2.50;;;2.30;;
4214;SDS011;2121;48.062;7.850;2023-04-25T07:35:06;7.87;;;3.00;;
4214;SDS011;2121;48.062;7.850;2023-04-25T07:37:33;3.20;;;2.90;;
4214;SDS011;2121;48.062;7.850;2023-04-25T07:39:59;3.77;;;3.47;;
4214;SDS011;2121;48.062;7.850;2023-04-25T07:42:28;3.83;;;3.00;;
4214;SDS011;2121;48.062;7.850;2023-04-25T07:44:54;3.70;;;3.00;;
4214;SDS011;2121;48.062;7.850;2023-04-25T07:47:20;3.37;;;3.00;;
4214;SDS011;2121;48.062;7.850;2023-04-25T07:49:46;3.90;;;2.87;;
4214;SDS011;2121;48.062;7.850;2023-04-25T07:52:12;6.23;;;3.03;;
4214;SDS011;2121;48.062;7.850;2023-04-25T07:54:38;3.80;;;3.23;;
4214;SDS011;2121;48.062;7.850;2023-04-25T07:57:04;3.23;;;2.47;;
4214;SDS011;2121;48.062;7.850;2023-04-25T07:59:31;3.20;;;3.00;;
4214;SDS011;2121;48.062;7.850;2023-04-25T08:01:57;2.93;;;2.73;;
4214;SDS011;2121;48.062;7.850;2023-04-25T08:04:23;2.87;;;2.67;;
4214;SDS011;2121;48.062;7.850;2023-04-25T08:06:50;5.07;;;3.20;;
4214;SDS011;2121;48.062;7.850;2023-04-25T08:09:16;3.97;;;3.40;;
4214;SDS011;2121;48.062;7.850;2023-04-25T08:11:42;3.03;;;2.73;;
4214;SDS011;2121;48.062;7.850;2023-04-25T08:14:08;4.57;;;3.07;;
4214;SDS011;2121;48.062;7.850;2023-04-25T08:16:34;5.90;;;3.33;;
4214;SDS011;2121;48.062;7.850;2023-04-25T08:19:00;2.90;;;2.67;;
4214;SDS011;2121;48.062;7.850;2023-04-25T08:21:26;3.50;;;2.73;;
4214;SDS011;2121;48.062;7.850;2023-04-25T08:23:54;3.73;;;3.10;;
4214;SDS011;2121;48.062;7.850;2023-04-25T08:26:20;3.87;;;3.40;;
4214;SDS011;2121;48.062;7.850;2023-04-25T08:28:46;5.40;;;3.07;;
4214;SDS011;2121;48.062;7.850;2023-04-25T08:31:12;3.53;;;3.23;;
4214;SDS011;2121;48.062;7.850;2023-04-25T08:33:38;3.50;;;3.20;;
4214;SDS011;2121;48.062;7.850;2023-04-25T08:36:03;3.33;;;3.07;;
4214;SDS011;2121;48.062;7.850;2023-04-25T08:38:29;3.57;;;3.27;;
4214;SDS011;2121;48.062;7.850;2023-04-25T08:40:55;7.10;;;3.97;;
4214;SDS011;2121;48.062;7.850;2023-04-25T08:43:25;3.33;;;3.03;;
4214;SDS011;2121;48.062;7.850;2023-04-25T08:45:53;3.23;;;2.70;;
4214;SDS011;2121;48.062;7.850;2023-04-25T08:48:29;4.50;;;3.30;;
4214;SDS011;2121;48.062;7.850;2023-04-25T08:50:59;3.50;;;3.20;;
4214;SDS011;2121;48.062;7.850;2023-04-25T08:53:32;3.97;;;3.50;;
4214;SDS011;2121;48.062;7.850;2023-04-25T08:55:59;3.17;;;2.87;;
4214;SDS011;2121;48.062;7.850;2023-04-25T08:58:27;3.43;;;3.23;;
4214;SDS011;2121;48.062;7.850;2023-04-25T09:00:53;2.93;;;2.73;;
4214;SDS011;2121;48.062;7.850;2023-04-25T09:03:19;3.97;;;3.57;;
4214;SDS011;2121;48.062;7.850;2023-04-25T09:05:45;3.30;;;3.07;;
4214;SDS011;2121;48.062;7.850;2023-04-25T09:08:11;2.97;;;2.77;;
4214;SDS011;2121;48.062;7.850;2023-04-25T09:10:37;6.07;;;3.17;;
4214;SDS011;2121;48.062;7.850;2023-04-25T09:15:46;4.23;;;3.50;;
4214;SDS011;2121;48.062;7.850;2023-04-25T09:18:24;6.30;;;3.43;;
4214;SDS011;2121;48.062;7.850;2023-04-25T09:21:10;4.47;;;3.37;;
4214;SDS011;2121;48.062;7.850;2023-04-25T09:23:55;5.33;;;3.60;;
4214;SDS011;2121;48.062;7.850;2023-04-25T09:26:21;8.30;;;4.23;;
4214;SDS011;2121;48.062;7.850;2023-04-25T09:28:46;3.60;;;3.37;;
4214;SDS011;2121;48.062;7.850;2023-04-25T09:31:21;3.40;;;3.20;;
4214;SDS011;2121;48.062;7.850;2023-04-25T09:33:49;4.27;;;3.87;;
4214;SDS011;2121;48.062;7.850;2023-04-25T09:36:15;4.13;;;3.50;;
4214;SDS011;2121;48.062;7.850;2023-04-25T09:38:44;6.90;;;3.30;;
4214;SDS011;2121;48.062;7.850;2023-04-25T09:41:11;4.27;;;2.87;;
4214;SDS011;2121;48.062;7.850;2023-04-25T09:43:37;3.33;;;3.03;;
4214;SDS011;2121;48.062;7.850;2023-04-25T09:46:10;2.60;;;2.40;;
4214;SDS011;2121;48.062;7.850;2023-04-25T09:48:36;4.20;;;3.37;;
4214;SDS011;2121;48.062;7.850;2023-04-25T09:51:09;2.93;;;2.73;;
4214;SDS011;2121;48.062;7.850;2023-04-25T09:53:40;8.47;;;3.43;;
4214;SDS011;2121;48.062;7.850;2023-04-25T09:56:08;4.83;;;3.97;;
4214;SDS011;2121;48.062;7.850;2023-04-25T09:58:36;4.53;;;2.97;;
4214;SDS011;2121;48.062;7.850;2023-04-25T10:01:04;3.50;;;3.30;;
4214;SDS011;2121;48.062;7.850;2023-04-25T10:03:33;2.63;;;2.50;;
4214;SDS011;2121;48.062;7.850;2023-04-25T10:06:02;3.20;;;3.00;;
4214;SDS011;2121;48.062;7.850;2023-04-25T10:08:34;4.20;;;2.87;;
4214;SDS011;2121;48.062;7.850;2023-04-25T10:11:02;3.10;;;2.90;;
4214;SDS011;2121;48.062;7.850;2023-04-25T10:13:30;2.43;;;2.23;;
4214;SDS011;2121;48.062;7.850;2023-04-25T10:16:00;3.80;;;2.67;;
4214;SDS011;2121;48.062;7.850;2023-04-25T10:18:29;2.70;;;2.50;;
4214;SDS011;2121;48.062;7.850;2023-04-25T10:20:57;2.83;;;2.63;;
4214;SDS011;2121;48.062;7.850;2023-04-25T10:23:27;2.50;;;2.30;;
4214;SDS011;2121;48.062;7.850;2023-04-25T10:25:55;6.00;;;2.73;;
4214;SDS011;2121;48.062;7.850;2023-04-25T10:28:21;4.40;;;3.00;;
4214;SDS011;2121;48.062;7.850;2023-04-25T10:33:33;15.93;;;7.47;;
4214;SDS011;2121;48.062;7.850;2023-04-25T10:36:11;3.00;;;2.70;;
4214;SDS011;2121;48.062;7.850;2023-04-25T10:38:39;2.90;;;2.50;;
4214;SDS011;2121;48.062;7.850;2023-04-25T10:41:09;3.97;;;3.10;;
4214;SDS011;2121;48.062;7.850;2023-04-25T10:43:43;14.77;;;5.90;;
4214;SDS011;2121;48.062;7.850;2023-04-25T10:46:17;2.40;;;2.13;;
4214;SDS011;2121;48.062;7.850;2023-04-25T10:48:55;2.73;;;2.53;;
4214;SDS011;2121;48.062;7.850;2023-04-25T10:51:25;2.83;;;2.63;;
4214;SDS011;2121;48.062;7.850;2023-04-25T10:56:23;3.20;;;2.33;;
4214;SDS011;2121;48.062;7.850;2023-04-25T10:59:04;4.30;;;3.50;;
4214;SDS011;2121;48.062;7.850;2023-04-25T11:01:44;6.30;;;3.00;;
4214;SDS011;2121;48.062;7.850;2023-04-25T11:09:56;5.33;;;2.80;;
4214;SDS011;2121;48.062;7.850;2023-04-25T11:12:24;4.23;;;2.73;;
4214;SDS011;2121;48.062;7.850;2023-04-25T11:14:50;2.77;;;2.40;;
4214;SDS011;2121;48.062;7.850;2023-04-25T11:17:16;2.40;;;2.30;;
4214;SDS011;2121;48.062;7.850;2023-04-25T11:19:41;2.87;;;2.07;;
4214;SDS011;2121;48.062;7.850;2023-04-25T11:22:07;2.30;;;2.20;;
4214;SDS011;2121;48.062;7.850;2023-04-25T11:24:35;2.87;;;2.50;;
4214;SDS011;2121;48.062;7.850;2023-04-25T11:27:02;2.40;;;2.30;;
4214;SDS011;2121;48.062;7.850;2023-04-25T11:29:29;3.27;;;2.80;;
4214;SDS011;2121;48.062;7.850;2023-04-25T11:31:57;2.40;;;2.30;;
4214;SDS011;2121;48.062;7.850;2023-04-25T11:34:23;2.87;;;2.67;;
4214;SDS011;2121;48.062;7.850;2023-04-25T11:36:50;2.80;;;2.60;;
4214;SDS011;2121;48.062;7.850;2023-04-25T11:39:19;3.53;;;3.23;;
4214;SDS011;2121;48.062;7.850;2023-04-25T11:41:46;3.47;;;3.20;;
4214;SDS011;2121;48.062;7.850;2023-04-25T11:44:12;2.20;;;2.10;;
4214;SDS011;2121;48.062;7.850;2023-04-25T11:46:41;2.80;;;2.60;;
4214;SDS011;2121;48.062;7.850;2023-04-25T11:49:08;2.20;;;2.10;;
4214;SDS011;2121;48.062;7.850;2023-04-25T11:51:41;2.83;;;2.60;;
4214;SDS011;2121;48.062;7.850;2023-04-25T11:54:09;2.70;;;2.50;;
4214;SDS011;2121;48.062;7.850;2023-04-25T11:56:35;2.40;;;2.30;;
4214;SDS011;2121;48.062;7.850;2023-04-25T11:59:02;2.80;;;2.60;;
4214;SDS011;2121;48.062;7.850;2023-04-25T12:01:31;6.17;;;2.30;;
4214;SDS011;2121;48.062;7.850;2023-04-25T12:04:10;3.17;;;2.30;;
4214;SDS011;2121;48.062;7.850;2023-04-25T12:06:45;2.27;;;2.17;;
4214;SDS011;2121;48.062;7.850;2023-04-25T12:09:19;2.07;;;1.97;;
4214;SDS011;2121;48.062;7.850;2023-04-25T12:11:47;3.03;;;2.30;;
4214;SDS011;2121;48.062;7.850;2023-04-25T12:14:24;2.37;;;2.27;;
4214;SDS011;2121;48.062;7.850;2023-04-25T12:16:52;1.93;;;1.60;;
4214;SDS011;2121;48.062;7.850;2023-04-25T12:19:32;2.13;;;1.83;;
4214;SDS011;2121;48.062;7.850;2023-04-25T12:22:01;1.83;;;1.70;;
4214;SDS011;2121;48.062;7.850;2023-04-25T12:24:32;2.93;;;2.40;;
4214;SDS011;2121;48.062;7.850;2023-04-25T12:29:28;1.87;;;1.77;;
4214;SDS011;2121;48.062;7.850;2023-04-25T12:31:56;2.60;;;1.40;;
4214;SDS011;2121;48.062;7.850;2023-04-25T12:34:23;1.57;;;1.40;;
4214;SDS011;2121;48.062;7.850;2023-04-25T12:36:49;1.77;;;1.40;;
4214;SDS011;2121;48.062;7.850;2023-04-25T12:39:20;1.20;;;1.20;;
4214;SDS011;2121;48.062;7.850;2023-04-25T12:41:48;1.40;;;1.30;;
4214;SDS011;2121;48.062;7.850;2023-04-25T12:44:15;1.37;;;1.37;;
4214;SDS011;2121;48.062;7.850;2023-04-25T12:46:42;1.73;;;1.43;;
4214;SDS011;2121;48.062;7.850;2023-04-25T12:49:08;1.50;;;1.40;;
4214;SDS011;2121;48.062;7.850;2023-04-25T12:51:34;1.80;;;1.50;;
4214;SDS011;2121;48.062;7.850;2023-04-25T12:54:01;1.87;;;1.77;;
4214;SDS011;2121;48.062;7.850;2023-04-25T12:56:29;6.00;;;2.70;;
4214;SDS011;2121;48.062;7.850;2023-04-25T12:58:56;4.67;;;1.83;;
4214;SDS011;2121;48.062;7.850;2023-04-25T13:01:22;2.50;;;2.30;;
4214;SDS011;2121;48.062;7.850;2023-04-25T13:03:51;3.83;;;3.43;;
4214;SDS011;2121;48.062;7.850;2023-04-25T13:06:18;1.77;;;1.67;;
4214;SDS011;2121;48.062;7.850;2023-04-25T13:08:45;4.10;;;1.77;;
4214;SDS011;2121;48.062;7.850;2023-04-25T13:11:11;2.50;;;2.30;;
4214;SDS011;2121;48.062;7.850;2023-04-25T13:13:37;7.67;;;2.60;;
4214;SDS011;2121;48.062;7.850;2023-04-25T13:16:04;1.77;;;1.70;;
4214;SDS011;2121;48.062;7.850;2023-04-25T13:18:31;6.00;;;1.77;;
4214;SDS011;2121;48.062;7.850;2023-04-25T13:20:57;1.80;;;1.70;;
4214;SDS011;2121;48.062;7.850;2023-04-25T13:23:24;1.60;;;1.50;;
4214;SDS011;2121;48.062;7.850;2023-04-25T13:25:52;2.00;;;1.90;;
4214;SDS011;2121;48.062;7.850;2023-04-25T13:28:18;2.13;;;1.97;;
4214;SDS011;2121;48.062;7.850;2023-04-25T13:30:44;2.70;;;2.07;;
4214;SDS011;2121;48.062;7.850;2023-04-25T13:33:12;3.33;;;1.83;;
4214;SDS011;2121;48.062;7.850;2023-04-25T13:35:37;1.83;;;1.73;;
4214;SDS011;2121;48.062;7.850;2023-04-25T13:38:04;1.57;;;1.53;;
4214;SDS011;2121;48.062;7.850;2023-04-25T13:40:30;1.97;;;1.67;;
4214;SDS011;2121;48.062;7.850;2023-04-25T13:42:56;2.17;;;1.50;;
4214;SDS011;2121;48.062;7.850;2023-04-25T13:45:22;1.00;;;1.00;;
4214;SDS011;2121;48.062;7.850;2023-04-25T13:47:49;1.20;;;1.20;;
4214;SDS011;2121;48.062;7.850;2023-04-25T13:50:14;1.80;;;1.70;;
4214;SDS011;2121;48.062;7.850;2023-04-25T13:52:41;1.40;;;1.30;;
4214;SDS011;2121;48.062;7.850;2023-04-25T13:55:07;1.43;;;1.33;;
4214;SDS011;2121;48.062;7.850;2023-04-25T13:57:34;2.97;;;1.57;;
4214;SDS011;2121;48.062;7.850;2023-04-25T14:00:00;1.40;;;1.40;;
4214;SDS011;2121;48.062;7.850;2023-04-25T14:02:46;1.27;;;1.27;;
4214;SDS011;2121;48.062;7.850;2023-04-25T14:05:11;1.87;;;1.53;;
4214;SDS011;2121;48.062;7.850;2023-04-25T14:07:37;1.50;;;1.40;;
4214;SDS011;2121;48.062;7.850;2023-04-25T14:10:04;1.43;;;1.33;;
4214;SDS011;2121;48.062;7.850;2023-04-25T14:12:30;1.50;;;1.40;;
4214;SDS011;2121;48.062;7.850;2023-04-25T14:14:57;1.70;;;1.60;;
4214;SDS011;2121;48.062;7.850;2023-04-25T14:17:22;3.57;;;1.90;;
4214;SDS011;2121;48.062;7.850;2023-04-25T14:19:49;1.80;;;1.70;;
4214;SDS011;2121;48.062;7.850;2023-04-25T14:22:15;1.70;;;1.60;;
4214;SDS011;2121;48.062;7.850;2023-04-25T14:24:41;3.27;;;2.03;;
4214;SDS011;2121;48.062;7.850;2023-04-25T14:27:07;1.40;;;1.17;;
4214;SDS011;2121;48.062;7.850;2023-04-25T14:29:34;1.67;;;1.57;;
4214;SDS011;2121;48.062;7.850;2023-04-25T14:32:00;1.43;;;1.33;;
4214;SDS011;2121;48.062;7.850;2023-04-25T14:34:26;1.70;;;1.60;;
4214;SDS011;2121;48.062;7.850;2023-04-25T14:36:52;1.70;;;1.60;;
4214;SDS011;2121;48.062;7.850;2023-04-25T14:39:18;1.80;;;1.70;;
4214;SDS011;2121;48.062;7.850;2023-04-25T14:41:45;1.70;;;1.60;;
4214;SDS011;2121;48.062;7.850;2023-04-25T14:44:10;1.47;;;1.37;;
4214;SDS011;2121;48.062;7.850;2023-04-25T14:46:36;1.70;;;1.60;;
4214;SDS011;2121;48.062;7.850;2023-04-25T14:49:02;5.40;;;1.90;;
4214;SDS011;2121;48.062;7.850;2023-04-25T14:51:29;2.33;;;2.13;;
4214;SDS011;2121;48.062;7.850;2023-04-25T14:53:55;3.90;;;2.40;;
4214;SDS011;2121;48.062;7.850;2023-04-25T14:56:21;2.20;;;1.73;;
4214;SDS011;2121;48.062;7.850;2023-04-25T14:58:47;3.30;;;3.03;;
4214;SDS011;2121;48.062;7.850;2023-04-25T15:01:14;2.83;;;2.60;;
4214;SDS011;2121;48.062;7.850;2023-04-25T15:03:40;4.20;;;2.00;;
4214;SDS011;2121;48.062;7.850;2023-04-25T15:06:06;4.47;;;2.17;;
4214;SDS011;2121;48.062;7.850;2023-04-25T15:08:32;4.03;;;2.40;;
4214;SDS011;2121;48.062;7.850;2023-04-25T15:10:58;3.13;;;2.27;;
4214;SDS011;2121;48.062;7.850;2023-04-25T15:13:25;2.60;;;2.13;;
4214;SDS011;2121;48.062;7.850;2023-04-25T15:15:51;2.67;;;2.40;;
4214;SDS011;2121;48.062;7.850;2023-04-25T15:18:19;3.63;;;2.40;;
4214;SDS011;2121;48.062;7.850;2023-04-25T15:20:50;2.83;;;2.63;;
4214;SDS011;2121;48.062;7.850;2023-04-25T15:23:17;3.17;;;2.97;;
4214;SDS011;2121;48.062;7.850;2023-04-25T15:25:44;2.43;;;2.33;;
4214;SDS011;2121;48.062;7.850;2023-04-25T15:28:10;4.50;;;3.00;;
4214;SDS011;2121;48.062;7.850;2023-04-25T15:30:36;3.73;;;3.43;;